sensor_id;sensor_type;location;lat;lon;timestamp;P1;durP1;ratioP1;P2;durP2;ratioP2
17032;SDS011;63208;52.178;21.016;2023-07-13T00:02:06;234.10;;;224.23;;
17032;SDS011;63208;52.178;21.016;2023-07-13T00:04:33;333.73;;;319.97;;
17032;SDS011;63208;52.178;21.016;2023-07-13T00:07:01;323.03;;;309.07;;
17032;SDS011;63208;52.178;21.016;2023-07-13T00:09:28;254.07;;;243.80;;
17032;SDS011;63208;52.178;21.016;2023-07-13T00:11:55;327.87;;;313.90;;
17032;SDS011;63208;52.178;21.016;2023-07-13T00:14:23;272.13;;;261.00;;
17032;SDS011;63208;52.178;21.016;2023-07-13T00:16:51;252.50;;;241.53;;
17032;SDS011;63208;52.178;21.016;2023-07-13T00:19:19;254.13;;;243.37;;
17032;SDS011;63208;52.178;21.016;2023-07-13T00:21:47;313.03;;;299.73;;
17032;SDS011;63208;52.178;21.016;2023-07-13T00:24:15;299.57;;;287.30;;
17032;SDS011;63208;52.178;21.016;2023-07-13T00:26:47;325.73;;;311.67;;
17032;SDS011;63208;52.178;21.016;2023-07-13T00:29:14;290.17;;;277.43;;
17032;SDS011;63208;52.178;21.016;2023-07-13T00:31:41;331.67;;;317.65;;
17032;SDS011;63208;52.178;21.016;2023-07-13T00:34:09;333.13;;;319.27;;
17032;SDS011;63208;52.178;21.016;2023-07-13T00:36:37;233.90;;;224.20;;
17032;SDS011;63208;52.178;21.016;2023-07-13T00:39:04;293.77;;;281.13;;
17032;SDS011;63208;52.178;21.016;2023-07-13T00:41:31;295.57;;;282.47;;
17032;SDS011;63208;52.178;21.016;2023-07-13T00:43:58;315.03;;;301.50;;
17032;SDS011;63208;52.178;21.016;2023-07-13T00:46:26;266.20;;;255.00;;
17032;SDS011;63208;52.178;21.016;2023-07-13T00:48:54;279.20;;;267.40;;
17032;SDS011;63208;52.178;21.016;2023-07-13T00:51:26;310.87;;;297.73;;
17032;SDS011;63208;52.178;21.016;2023-07-13T00:54:05;281.67;;;269.70;;
17032;SDS011;63208;52.178;21.016;2023-07-13T00:56:35;295.80;;;283.03;;
17032;SDS011;63208;52.178;21.016;2023-07-13T00:59:04;268.40;;;257.20;;
17032;SDS011;63208;52.178;21.016;2023-07-13T01:01:33;310.00;;;297.07;;
17032;SDS011;63208;52.178;21.016;2023-07-13T01:04:02;283.92;;;272.15;;
17032;SDS011;63208;52.178;21.016;2023-07-13T01:06:33;308.73;;;295.77;;
17032;SDS011;63208;52.178;21.016;2023-07-13T01:09:00;301.67;;;289.30;;
17032;SDS011;63208;52.178;21.016;2023-07-13T01:11:29;344.33;;;330.33;;
17032;SDS011;63208;52.178;21.016;2023-07-13T01:13:56;305.42;;;292.65;;
17032;SDS011;63208;52.178;21.016;2023-07-13T01:16:24;350.35;;;335.88;;
17032;SDS011;63208;52.178;21.016;2023-07-13T01:18:52;328.70;;;314.73;;
17032;SDS011;63208;52.178;21.016;2023-07-13T01:21:20;283.88;;;271.98;;
17032;SDS011;63208;52.178;21.016;2023-07-13T01:23:48;318.55;;;305.35;;
17032;SDS011;63208;52.178;21.016;2023-07-13T01:26:15;329.30;;;315.42;;
17032;SDS011;63208;52.178;21.016;2023-07-13T01:28:42;302.20;;;289.48;;
17032;SDS011;63208;52.178;21.016;2023-07-13T01:31:09;312.43;;;299.47;;
17032;SDS011;63208;52.178;21.016;2023-07-13T01:33:37;313.55;;;300.17;;
17032;SDS011;63208;52.178;21.016;2023-07-13T01:36:05;298.13;;;285.50;;
17032;SDS011;63208;52.178;21.016;2023-07-13T01:38:35;315.10;;;301.77;;
17032;SDS011;63208;52.178;21.016;2023-07-13T01:41:02;313.77;;;300.33;;
17032;SDS011;63208;52.178;21.016;2023-07-13T01:43:29;301.43;;;288.47;;
17032;SDS011;63208;52.178;21.016;2023-07-13T01:45:57;314.57;;;301.17;;
17032;SDS011;63208;52.178;21.016;2023-07-13T01:48:24;309.50;;;296.43;;
17032;SDS011;63208;52.178;21.016;2023-07-13T01:50:51;366.87;;;351.60;;
17032;SDS011;63208;52.178;21.016;2023-07-13T01:53:18;318.88;;;305.55;;
17032;SDS011;63208;52.178;21.016;2023-07-13T01:55:46;313.85;;;300.63;;
17032;SDS011;63208;52.178;21.016;2023-07-13T01:58:13;332.65;;;318.85;;
17032;SDS011;63208;52.178;21.016;2023-07-13T02:00:40;315.73;;;302.10;;
17032;SDS011;63208;52.178;21.016;2023-07-13T02:03:07;347.27;;;332.48;;
17032;SDS011;63208;52.178;21.016;2023-07-13T02:05:34;294.13;;;281.65;;
17032;SDS011;63208;52.178;21.016;2023-07-13T02:08:01;323.50;;;310.10;;
17032;SDS011;63208;52.178;21.016;2023-07-13T02:10:28;319.52;;;305.60;;
17032;SDS011;63208;52.178;21.016;2023-07-13T02:12:56;305.00;;;292.30;;
17032;SDS011;63208;52.178;21.016;2023-07-13T02:15:23;329.83;;;315.85;;
17032;SDS011;63208;52.178;21.016;2023-07-13T02:17:50;343.63;;;329.27;;
17032;SDS011;63208;52.178;21.016;2023-07-13T02:20:17;318.07;;;304.80;;
17032;SDS011;63208;52.178;21.016;2023-07-13T02:22:44;326.40;;;312.70;;
17032;SDS011;63208;52.178;21.016;2023-07-13T02:25:10;312.67;;;299.43;;
17032;SDS011;63208;52.178;21.016;2023-07-13T02:27:37;308.87;;;295.53;;
17032;SDS011;63208;52.178;21.016;2023-07-13T02:30:06;326.15;;;312.25;;
17032;SDS011;63208;52.178;21.016;2023-07-13T02:32:34;320.40;;;306.60;;
17032;SDS011;63208;52.178;21.016;2023-07-13T02:35:01;303.80;;;290.90;;
17032;SDS011;63208;52.178;21.016;2023-07-13T02:37:28;320.77;;;307.47;;
17032;SDS011;63208;52.178;21.016;2023-07-13T02:39:56;325.43;;;312.13;;
17032;SDS011;63208;52.178;21.016;2023-07-13T02:42:23;317.27;;;304.03;;
17032;SDS011;63208;52.178;21.016;2023-07-13T02:44:50;301.33;;;288.77;;
17032;SDS011;63208;52.178;21.016;2023-07-13T02:47:18;306.70;;;293.60;;
17032;SDS011;63208;52.178;21.016;2023-07-13T02:49:45;317.97;;;304.77;;
17032;SDS011;63208;52.178;21.016;2023-07-13T02:52:12;312.40;;;299.35;;
17032;SDS011;63208;52.178;21.016;2023-07-13T02:54:39;342.35;;;328.00;;
17032;SDS011;63208;52.178;21.016;2023-07-13T02:57:06;328.57;;;315.07;;
17032;SDS011;63208;52.178;21.016;2023-07-13T02:59:33;322.48;;;308.98;;
17032;SDS011;63208;52.178;21.016;2023-07-13T03:02:00;332.45;;;318.25;;
17032;SDS011;63208;52.178;21.016;2023-07-13T03:04:29;338.08;;;323.52;;
17032;SDS011;63208;52.178;21.016;2023-07-13T03:06:56;346.88;;;332.13;;
17032;SDS011;63208;52.178;21.016;2023-07-13T03:09:23;330.73;;;316.50;;
17032;SDS011;63208;52.178;21.016;2023-07-13T03:11:52;352.20;;;337.60;;
17032;SDS011;63208;52.178;21.016;2023-07-13T03:14:19;334.63;;;320.25;;
17032;SDS011;63208;52.178;21.016;2023-07-13T03:16:47;340.98;;;327.35;;
17032;SDS011;63208;52.178;21.016;2023-07-13T03:19:14;360.93;;;346.00;;
17032;SDS011;63208;52.178;21.016;2023-07-13T03:21:42;371.50;;;356.15;;
17032;SDS011;63208;52.178;21.016;2023-07-13T03:24:09;364.45;;;349.67;;
17032;SDS011;63208;52.178;21.016;2023-07-13T03:26:36;363.20;;;347.35;;
17032;SDS011;63208;52.178;21.016;2023-07-13T03:29:04;396.63;;;379.17;;
17032;SDS011;63208;52.178;21.016;2023-07-13T03:31:32;364.65;;;349.25;;
17032;SDS011;63208;52.178;21.016;2023-07-13T03:34:01;390.65;;;374.30;;
17032;SDS011;63208;52.178;21.016;2023-07-13T03:36:30;376.88;;;361.20;;
17032;SDS011;63208;52.178;21.016;2023-07-13T03:38:59;361.73;;;346.77;;
17032;SDS011;63208;52.178;21.016;2023-07-13T03:41:28;392.35;;;375.73;;
17032;SDS011;63208;52.178;21.016;2023-07-13T03:43:55;365.02;;;349.70;;
17032;SDS011;63208;52.178;21.016;2023-07-13T03:46:22;397.02;;;380.52;;
17032;SDS011;63208;52.178;21.016;2023-07-13T03:48:49;384.70;;;368.95;;
17032;SDS011;63208;52.178;21.016;2023-07-13T03:51:16;363.20;;;347.88;;
17032;SDS011;63208;52.178;21.016;2023-07-13T03:53:44;365.38;;;350.10;;
17032;SDS011;63208;52.178;21.016;2023-07-13T03:56:14;394.23;;;378.05;;
17032;SDS011;63208;52.178;21.016;2023-07-13T03:58:42;370.17;;;354.90;;
17032;SDS011;63208;52.178;21.016;2023-07-13T04:01:11;385.40;;;369.75;;
17032;SDS011;63208;52.178;21.016;2023-07-13T04:03:39;381.30;;;365.65;;
17032;SDS011;63208;52.178;21.016;2023-07-13T04:06:07;376.63;;;361.70;;
17032;SDS011;63208;52.178;21.016;2023-07-13T04:08:46;373.45;;;358.55;;
17032;SDS011;63208;52.178;21.016;2023-07-13T04:11:16;389.65;;;373.63;;
17032;SDS011;63208;52.178;21.016;2023-07-13T04:13:44;382.30;;;366.63;;
17032;SDS011;63208;52.178;21.016;2023-07-13T04:16:11;384.75;;;368.65;;
17032;SDS011;63208;52.178;21.016;2023-07-13T04:18:38;372.08;;;356.05;;
17032;SDS011;63208;52.178;21.016;2023-07-13T04:21:06;368.98;;;353.35;;
17032;SDS011;63208;52.178;21.016;2023-07-13T04:23:33;372.48;;;357.17;;
17032;SDS011;63208;52.178;21.016;2023-07-13T04:26:00;361.20;;;346.30;;
17032;SDS011;63208;52.178;21.016;2023-07-13T04:28:29;372.70;;;357.50;;
17032;SDS011;63208;52.178;21.016;2023-07-13T04:30:56;378.45;;;363.15;;
17032;SDS011;63208;52.178;21.016;2023-07-13T04:33:23;357.60;;;343.05;;
17032;SDS011;63208;52.178;21.016;2023-07-13T04:35:51;353.50;;;338.77;;
17032;SDS011;63208;52.178;21.016;2023-07-13T04:38:21;396.75;;;380.42;;
17032;SDS011;63208;52.178;21.016;2023-07-13T04:40:49;364.85;;;350.08;;
17032;SDS011;63208;52.178;21.016;2023-07-13T04:43:17;380.45;;;364.70;;
17032;SDS011;63208;52.178;21.016;2023-07-13T04:45:45;342.70;;;328.83;;
17032;SDS011;63208;52.178;21.016;2023-07-13T04:48:12;390.33;;;374.45;;
17032;SDS011;63208;52.178;21.016;2023-07-13T04:50:39;351.50;;;337.35;;
17032;SDS011;63208;52.178;21.016;2023-07-13T04:53:06;359.83;;;345.58;;
17032;SDS011;63208;52.178;21.016;2023-07-13T04:55:33;375.27;;;360.20;;
17032;SDS011;63208;52.178;21.016;2023-07-13T04:58:00;368.08;;;353.30;;
17032;SDS011;63208;52.178;21.016;2023-07-13T05:00:28;359.08;;;344.83;;
17032;SDS011;63208;52.178;21.016;2023-07-13T05:02:56;354.70;;;340.48;;
17032;SDS011;63208;52.178;21.016;2023-07-13T05:05:24;340.10;;;326.40;;
17032;SDS011;63208;52.178;21.016;2023-07-13T05:07:52;376.60;;;361.27;;
17032;SDS011;63208;52.178;21.016;2023-07-13T05:10:19;359.52;;;344.80;;
17032;SDS011;63208;52.178;21.016;2023-07-13T05:12:47;354.50;;;340.70;;
17032;SDS011;63208;52.178;21.016;2023-07-13T05:15:14;348.73;;;334.48;;
17032;SDS011;63208;52.178;21.016;2023-07-13T05:17:41;332.23;;;318.75;;
17032;SDS011;63208;52.178;21.016;2023-07-13T05:20:10;341.58;;;327.85;;
17032;SDS011;63208;52.178;21.016;2023-07-13T05:22:37;341.50;;;327.20;;
17032;SDS011;63208;52.178;21.016;2023-07-13T05:25:04;348.60;;;334.20;;
17032;SDS011;63208;52.178;21.016;2023-07-13T05:27:32;347.52;;;333.75;;
17032;SDS011;63208;52.178;21.016;2023-07-13T05:29:59;349.73;;;335.40;;
17032;SDS011;63208;52.178;21.016;2023-07-13T05:32:26;353.80;;;339.75;;
17032;SDS011;63208;52.178;21.016;2023-07-13T05:34:53;339.48;;;325.67;;
17032;SDS011;63208;52.178;21.016;2023-07-13T05:37:21;334.83;;;320.90;;
17032;SDS011;63208;52.178;21.016;2023-07-13T05:39:48;327.27;;;313.60;;
17032;SDS011;63208;52.178;21.016;2023-07-13T05:42:16;340.13;;;326.33;;
17032;SDS011;63208;52.178;21.016;2023-07-13T05:44:57;344.80;;;330.80;;
17032;SDS011;63208;52.178;21.016;2023-07-13T05:47:23;323.88;;;310.67;;
17032;SDS011;63208;52.178;21.016;2023-07-13T05:49:50;335.00;;;321.67;;
17032;SDS011;63208;52.178;21.016;2023-07-13T05:52:17;323.67;;;310.15;;
17032;SDS011;63208;52.178;21.016;2023-07-13T05:54:45;334.63;;;321.00;;
17032;SDS011;63208;52.178;21.016;2023-07-13T05:57:12;341.50;;;327.77;;
17032;SDS011;63208;52.178;21.016;2023-07-13T05:59:39;355.25;;;341.00;;
17032;SDS011;63208;52.178;21.016;2023-07-13T06:02:07;325.38;;;312.30;;
17032;SDS011;63208;52.178;21.016;2023-07-13T06:04:35;333.50;;;320.13;;
17032;SDS011;63208;52.178;21.016;2023-07-13T06:07:02;355.13;;;340.75;;
17032;SDS011;63208;52.178;21.016;2023-07-13T06:09:29;332.58;;;318.88;;
17032;SDS011;63208;52.178;21.016;2023-07-13T06:11:58;369.00;;;354.02;;
17032;SDS011;63208;52.178;21.016;2023-07-13T06:14:25;345.40;;;331.15;;
17032;SDS011;63208;52.178;21.016;2023-07-13T06:16:52;350.83;;;336.30;;
17032;SDS011;63208;52.178;21.016;2023-07-13T06:19:19;330.13;;;316.65;;
17032;SDS011;63208;52.178;21.016;2023-07-13T06:21:45;354.50;;;339.98;;
17032;SDS011;63208;52.178;21.016;2023-07-13T06:24:12;362.20;;;347.33;;
17032;SDS011;63208;52.178;21.016;2023-07-13T06:26:39;352.67;;;338.50;;
17032;SDS011;63208;52.178;21.016;2023-07-13T06:29:08;339.63;;;326.00;;
17032;SDS011;63208;52.178;21.016;2023-07-13T06:31:34;345.83;;;332.10;;
17032;SDS011;63208;52.178;21.016;2023-07-13T06:34:01;347.35;;;333.27;;
17032;SDS011;63208;52.178;21.016;2023-07-13T06:36:33;346.25;;;332.10;;
17032;SDS011;63208;52.178;21.016;2023-07-13T06:39:11;350.02;;;335.83;;
17032;SDS011;63208;52.178;21.016;2023-07-13T06:41:38;374.85;;;359.80;;
17032;SDS011;63208;52.178;21.016;2023-07-13T06:44:05;354.02;;;339.60;;
17032;SDS011;63208;52.178;21.016;2023-07-13T06:46:34;358.17;;;343.45;;
17032;SDS011;63208;52.178;21.016;2023-07-13T06:49:01;343.52;;;329.67;;
17032;SDS011;63208;52.178;21.016;2023-07-13T06:51:28;355.40;;;341.38;;
17032;SDS011;63208;52.178;21.016;2023-07-13T06:53:55;377.98;;;362.17;;
17032;SDS011;63208;52.178;21.016;2023-07-13T06:56:22;373.27;;;357.65;;
17032;SDS011;63208;52.178;21.016;2023-07-13T06:58:59;365.52;;;350.77;;
17032;SDS011;63208;52.178;21.016;2023-07-13T07:01:26;376.85;;;361.45;;
17032;SDS011;63208;52.178;21.016;2023-07-13T07:03:55;380.73;;;365.35;;
17032;SDS011;63208;52.178;21.016;2023-07-13T07:06:23;363.10;;;348.58;;
17032;SDS011;63208;52.178;21.016;2023-07-13T07:08:51;381.88;;;366.23;;
17032;SDS011;63208;52.178;21.016;2023-07-13T07:11:19;371.63;;;356.45;;
17032;SDS011;63208;52.178;21.016;2023-07-13T07:13:47;404.30;;;387.98;;
17032;SDS011;63208;52.178;21.016;2023-07-13T07:16:14;395.48;;;379.38;;
17032;SDS011;63208;52.178;21.016;2023-07-13T07:18:41;378.70;;;363.73;;
17032;SDS011;63208;52.178;21.016;2023-07-13T07:21:13;395.60;;;379.48;;
17032;SDS011;63208;52.178;21.016;2023-07-13T07:23:41;373.63;;;358.02;;
17032;SDS011;63208;52.178;21.016;2023-07-13T07:26:09;398.60;;;382.10;;
17032;SDS011;63208;52.178;21.016;2023-07-13T07:28:36;389.67;;;373.40;;
17032;SDS011;63208;52.178;21.016;2023-07-13T07:31:04;384.58;;;368.80;;
17032;SDS011;63208;52.178;21.016;2023-07-13T07:33:31;378.70;;;363.92;;
17032;SDS011;63208;52.178;21.016;2023-07-13T07:35:59;344.60;;;331.08;;
17032;SDS011;63208;52.178;21.016;2023-07-13T07:38:27;391.90;;;376.10;;
17032;SDS011;63208;52.178;21.016;2023-07-13T07:40:54;385.92;;;370.52;;
17032;SDS011;63208;52.178;21.016;2023-07-13T07:43:21;388.35;;;372.63;;
17032;SDS011;63208;52.178;21.016;2023-07-13T07:45:48;391.85;;;375.92;;
17032;SDS011;63208;52.178;21.016;2023-07-13T07:48:14;380.63;;;365.52;;
17032;SDS011;63208;52.178;21.016;2023-07-13T07:50:41;398.10;;;381.80;;
17032;SDS011;63208;52.178;21.016;2023-07-13T07:53:15;388.70;;;373.02;;
17032;SDS011;63208;52.178;21.016;2023-07-13T07:55:43;408.10;;;391.45;;
17032;SDS011;63208;52.178;21.016;2023-07-13T07:58:10;379.85;;;364.48;;
17032;SDS011;63208;52.178;21.016;2023-07-13T08:00:37;399.73;;;383.13;;
17032;SDS011;63208;52.178;21.016;2023-07-13T08:03:04;404.27;;;387.05;;
17032;SDS011;63208;52.178;21.016;2023-07-13T08:05:31;386.10;;;370.45;;
17032;SDS011;63208;52.178;21.016;2023-07-13T08:07:57;381.08;;;365.25;;
17032;SDS011;63208;52.178;21.016;2023-07-13T08:10:24;422.48;;;404.98;;
17032;SDS011;63208;52.178;21.016;2023-07-13T08:12:53;390.48;;;374.63;;
17032;SDS011;63208;52.178;21.016;2023-07-13T08:15:20;370.42;;;355.23;;
17032;SDS011;63208;52.178;21.016;2023-07-13T08:17:58;394.30;;;378.15;;
17032;SDS011;63208;52.178;21.016;2023-07-13T08:20:25;391.27;;;375.58;;
17032;SDS011;63208;52.178;21.016;2023-07-13T08:22:52;376.67;;;361.60;;
17032;SDS011;63208;52.178;21.016;2023-07-13T08:25:19;380.35;;;364.80;;
17032;SDS011;63208;52.178;21.016;2023-07-13T08:27:47;377.23;;;361.92;;
17032;SDS011;63208;52.178;21.016;2023-07-13T08:30:15;391.63;;;375.50;;
17032;SDS011;63208;52.178;21.016;2023-07-13T08:32:42;375.80;;;360.48;;
17032;SDS011;63208;52.178;21.016;2023-07-13T08:35:09;391.55;;;375.80;;
17032;SDS011;63208;52.178;21.016;2023-07-13T08:37:37;383.52;;;367.67;;
17032;SDS011;63208;52.178;21.016;2023-07-13T08:40:04;388.65;;;372.83;;
17032;SDS011;63208;52.178;21.016;2023-07-13T08:42:33;405.20;;;388.58;;
17032;SDS011;63208;52.178;21.016;2023-07-13T08:45:06;382.02;;;366.15;;
17032;SDS011;63208;52.178;21.016;2023-07-13T08:47:42;419.05;;;401.90;;
17032;SDS011;63208;52.178;21.016;2023-07-13T08:50:15;401.48;;;384.70;;
17032;SDS011;63208;52.178;21.016;2023-07-13T08:52:45;398.63;;;382.00;;
17032;SDS011;63208;52.178;21.016;2023-07-13T08:55:13;422.27;;;404.85;;
17032;SDS011;63208;52.178;21.016;2023-07-13T08:57:42;396.83;;;380.48;;
17032;SDS011;63208;52.178;21.016;2023-07-13T09:00:13;419.95;;;403.15;;
17032;SDS011;63208;52.178;21.016;2023-07-13T09:02:45;424.42;;;407.00;;
17032;SDS011;63208;52.178;21.016;2023-07-13T09:05:18;390.60;;;374.45;;
17032;SDS011;63208;52.178;21.016;2023-07-13T09:07:57;422.77;;;405.27;;
17032;SDS011;63208;52.178;21.016;2023-07-13T09:10:36;399.50;;;383.40;;
17032;SDS011;63208;52.178;21.016;2023-07-13T09:13:12;410.40;;;393.35;;
17032;SDS011;63208;52.178;21.016;2023-07-13T09:15:47;418.60;;;401.23;;
17032;SDS011;63208;52.178;21.016;2023-07-13T09:18:19;419.35;;;401.75;;
17032;SDS011;63208;52.178;21.016;2023-07-13T09:20:51;411.13;;;394.27;;
17032;SDS011;63208;52.178;21.016;2023-07-13T09:23:20;424.80;;;406.85;;
17032;SDS011;63208;52.178;21.016;2023-07-13T09:25:51;420.60;;;403.35;;
17032;SDS011;63208;52.178;21.016;2023-07-13T09:28:25;415.13;;;397.98;;
17032;SDS011;63208;52.178;21.016;2023-07-13T09:30:56;408.85;;;391.95;;
17032;SDS011;63208;52.178;21.016;2023-07-13T09:33:30;430.95;;;412.52;;
17032;SDS011;63208;52.178;21.016;2023-07-13T09:35:58;432.55;;;413.70;;
17032;SDS011;63208;52.178;21.016;2023-07-13T09:38:26;441.65;;;422.65;;
17032;SDS011;63208;52.178;21.016;2023-07-13T09:41:04;435.95;;;417.70;;
17032;SDS011;63208;52.178;21.016;2023-07-13T09:43:35;438.67;;;420.27;;
17032;SDS011;63208;52.178;21.016;2023-07-13T09:46:03;423.20;;;405.40;;
17032;SDS011;63208;52.178;21.016;2023-07-13T09:48:34;433.90;;;415.40;;
17032;SDS011;63208;52.178;21.016;2023-07-13T09:51:06;440.92;;;422.42;;
17032;SDS011;63208;52.178;21.016;2023-07-13T09:53:34;437.80;;;419.05;;
17032;SDS011;63208;52.178;21.016;2023-07-13T09:56:00;456.52;;;437.23;;
17032;SDS011;63208;52.178;21.016;2023-07-13T09:58:29;460.88;;;440.75;;
17032;SDS011;63208;52.178;21.016;2023-07-13T10:01:03;448.10;;;429.10;;
17032;SDS011;63208;52.178;21.016;2023-07-13T10:03:31;423.88;;;405.67;;
17032;SDS011;63208;52.178;21.016;2023-07-13T10:06:21;439.60;;;420.98;;
17032;SDS011;63208;52.178;21.016;2023-07-13T10:08:49;417.13;;;399.58;;
17032;SDS011;63208;52.178;21.016;2023-07-13T10:11:18;432.88;;;414.63;;
17032;SDS011;63208;52.178;21.016;2023-07-13T10:13:50;420.38;;;403.15;;
17032;SDS011;63208;52.178;21.016;2023-07-13T10:16:19;461.45;;;441.80;;
17032;SDS011;63208;52.178;21.016;2023-07-13T10:18:47;477.05;;;454.60;;
17032;SDS011;63208;52.178;21.016;2023-07-13T10:21:22;404.65;;;388.05;;
17032;SDS011;63208;52.178;21.016;2023-07-13T10:23:53;393.23;;;376.40;;
17032;SDS011;63208;52.178;21.016;2023-07-13T10:26:25;443.48;;;423.95;;
17032;SDS011;63208;52.178;21.016;2023-07-13T10:28:56;438.27;;;419.88;;
17032;SDS011;63208;52.178;21.016;2023-07-13T10:31:29;418.00;;;400.85;;
17032;SDS011;63208;52.178;21.016;2023-07-13T10:33:57;433.83;;;415.38;;
17032;SDS011;63208;52.178;21.016;2023-07-13T10:36:30;434.63;;;416.45;;
17032;SDS011;63208;52.178;21.016;2023-07-13T10:38:59;418.20;;;400.60;;
17032;SDS011;63208;52.178;21.016;2023-07-13T10:41:27;403.48;;;386.75;;
17032;SDS011;63208;52.178;21.016;2023-07-13T10:47:00;390.65;;;373.83;;
17032;SDS011;63208;52.178;21.016;2023-07-13T10:49:31;385.63;;;369.63;;
17032;SDS011;63208;52.178;21.016;2023-07-13T10:52:01;415.95;;;398.92;;
17032;SDS011;63208;52.178;21.016;2023-07-13T10:54:30;400.77;;;383.95;;
17032;SDS011;63208;52.178;21.016;2023-07-13T10:57:07;395.25;;;378.30;;
17032;SDS011;63208;52.178;21.016;2023-07-13T10:59:36;487.27;;;463.92;;
17032;SDS011;63208;52.178;21.016;2023-07-13T11:02:09;497.35;;;477.50;;
17032;SDS011;63208;52.178;21.016;2023-07-13T11:04:55;674.25;;;630.90;;
17032;SDS011;63208;52.178;21.016;2023-07-13T11:07:25;764.92;;;695.67;;
17032;SDS011;63208;52.178;21.016;2023-07-13T11:09:54;673.30;;;606.60;;
17032;SDS011;63208;52.178;21.016;2023-07-13T11:12:27;342.13;;;326.33;;
17032;SDS011;63208;52.178;21.016;2023-07-13T11:15:11;182.33;;;174.87;;
17032;SDS011;63208;52.178;21.016;2023-07-13T11:17:47;196.47;;;188.13;;
17032;SDS011;63208;52.178;21.016;2023-07-13T11:20:20;205.50;;;197.00;;
17032;SDS011;63208;52.178;21.016;2023-07-13T11:23:16;197.97;;;189.87;;
17032;SDS011;63208;52.178;21.016;2023-07-13T11:25:58;311.00;;;298.53;;
17032;SDS011;63208;52.178;21.016;2023-07-13T11:28:27;349.57;;;335.40;;
17032;SDS011;63208;52.178;21.016;2023-07-13T11:31:02;322.65;;;309.92;;
17032;SDS011;63208;52.178;21.016;2023-07-13T11:33:56;329.65;;;316.25;;
17032;SDS011;63208;52.178;21.016;2023-07-13T11:36:27;331.67;;;318.23;;
17032;SDS011;63208;52.178;21.016;2023-07-13T11:39:05;421.48;;;402.20;;
17032;SDS011;63208;52.178;21.016;2023-07-13T11:41:43;420.52;;;401.73;;
17032;SDS011;63208;52.178;21.016;2023-07-13T11:44:17;263.52;;;252.93;;
17032;SDS011;63208;52.178;21.016;2023-07-13T11:46:46;312.38;;;299.45;;
17032;SDS011;63208;52.178;21.016;2023-07-13T11:49:17;395.25;;;378.60;;
17032;SDS011;63208;52.178;21.016;2023-07-13T11:51:45;344.52;;;330.63;;
17032;SDS011;63208;52.178;21.016;2023-07-13T11:54:22;341.73;;;327.10;;
17032;SDS011;63208;52.178;21.016;2023-07-13T11:56:51;356.10;;;341.35;;
17032;SDS011;63208;52.178;21.016;2023-07-13T11:59:19;335.80;;;322.08;;
17032;SDS011;63208;52.178;21.016;2023-07-13T12:01:47;397.38;;;380.42;;
17032;SDS011;63208;52.178;21.016;2023-07-13T12:04:19;343.42;;;328.92;;
17032;SDS011;63208;52.178;21.016;2023-07-13T12:06:54;365.10;;;349.27;;
17032;SDS011;63208;52.178;21.016;2023-07-13T12:09:25;323.75;;;308.73;;
17032;SDS011;63208;52.178;21.016;2023-07-13T12:11:53;344.93;;;330.23;;
17032;SDS011;63208;52.178;21.016;2023-07-13T12:14:22;334.70;;;320.77;;
17032;SDS011;63208;52.178;21.016;2023-07-13T12:16:51;296.17;;;283.87;;
17032;SDS011;63208;52.178;21.016;2023-07-13T12:19:20;312.20;;;299.23;;
17032;SDS011;63208;52.178;21.016;2023-07-13T12:21:48;322.40;;;307.70;;
17032;SDS011;63208;52.178;21.016;2023-07-13T12:24:17;289.17;;;277.87;;
17032;SDS011;63208;52.178;21.016;2023-07-13T12:26:51;392.67;;;374.80;;
17032;SDS011;63208;52.178;21.016;2023-07-13T12:29:20;287.98;;;276.52;;
17032;SDS011;63208;52.178;21.016;2023-07-13T12:31:55;274.80;;;263.75;;
17032;SDS011;63208;52.178;21.016;2023-07-13T12:34:24;331.92;;;316.40;;
17032;SDS011;63208;52.178;21.016;2023-07-13T12:36:52;317.67;;;303.88;;
17032;SDS011;63208;52.178;21.016;2023-07-13T12:39:22;298.33;;;285.42;;
17032;SDS011;63208;52.178;21.016;2023-07-13T12:41:52;268.02;;;256.25;;
17032;SDS011;63208;52.178;21.016;2023-07-13T12:44:22;284.67;;;273.08;;
17032;SDS011;63208;52.178;21.016;2023-07-13T12:46:54;292.38;;;280.25;;
17032;SDS011;63208;52.178;21.016;2023-07-13T12:49:26;327.98;;;314.33;;
17032;SDS011;63208;52.178;21.016;2023-07-13T12:52:02;284.00;;;272.42;;
17032;SDS011;63208;52.178;21.016;2023-07-13T12:54:38;297.33;;;285.38;;
17032;SDS011;63208;52.178;21.016;2023-07-13T12:57:08;326.50;;;313.20;;
17032;SDS011;63208;52.178;21.016;2023-07-13T12:59:42;229.05;;;218.23;;
17032;SDS011;63208;52.178;21.016;2023-07-13T13:02:17;304.17;;;291.20;;
17032;SDS011;63208;52.178;21.016;2023-07-13T13:04:52;216.13;;;206.80;;
17032;SDS011;63208;52.178;21.016;2023-07-13T13:10:10;274.50;;;262.60;;
17032;SDS011;63208;52.178;21.016;2023-07-13T13:12:40;272.73;;;260.95;;
17032;SDS011;63208;52.178;21.016;2023-07-13T13:15:07;279.02;;;266.45;;
17032;SDS011;63208;52.178;21.016;2023-07-13T13:17:35;321.40;;;306.85;;
17032;SDS011;63208;52.178;21.016;2023-07-13T13:20:04;304.25;;;290.52;;
17032;SDS011;63208;52.178;21.016;2023-07-13T13:22:39;304.30;;;290.67;;
17032;SDS011;63208;52.178;21.016;2023-07-13T13:25:07;333.95;;;318.92;;
17032;SDS011;63208;52.178;21.016;2023-07-13T13:27:36;275.00;;;263.08;;
17032;SDS011;63208;52.178;21.016;2023-07-13T13:30:07;345.85;;;330.58;;
17032;SDS011;63208;52.178;21.016;2023-07-13T13:32:37;268.02;;;255.95;;
17032;SDS011;63208;52.178;21.016;2023-07-13T13:35:05;327.63;;;313.48;;
17032;SDS011;63208;52.178;21.016;2023-07-13T13:37:38;307.05;;;293.15;;
17032;SDS011;63208;52.178;21.016;2023-07-13T13:40:13;284.10;;;271.33;;
17032;SDS011;63208;52.178;21.016;2023-07-13T13:42:41;306.60;;;292.45;;
17032;SDS011;63208;52.178;21.016;2023-07-13T13:45:10;282.90;;;269.70;;
17032;SDS011;63208;52.178;21.016;2023-07-13T13:47:38;321.17;;;306.60;;
17032;SDS011;63208;52.178;21.016;2023-07-13T13:50:11;280.27;;;266.90;;
17032;SDS011;63208;52.178;21.016;2023-07-13T13:52:40;270.42;;;258.00;;
17032;SDS011;63208;52.178;21.016;2023-07-13T13:55:11;292.08;;;279.10;;
17032;SDS011;63208;52.178;21.016;2023-07-13T13:57:39;303.48;;;289.55;;
17032;SDS011;63208;52.178;21.016;2023-07-13T14:00:07;340.90;;;326.40;;
17032;SDS011;63208;52.178;21.016;2023-07-13T14:02:39;309.58;;;296.40;;